map of OXB home
OXB - Airport
Location
City:  Bissau, Guinea-Bissau
Name:Oswaldo Vieira International Airport
ICAO:GGOV
IATA:OXB

Details
Type:Airport (Aerodrome, Airfield)
Use:Public/Civil, Military, International (customs port of entry)
Latitude:1153'41"N (11.894850)
Longitude:1539'13"W (-15.653680)
Datum:WGS 1984
Elevation:129 ft (39 m)
Variation:7.12W (WMM2015 magnetic declination)
0.11 annual change
Runways:1
Longest:10499 × 148 ft (3200 × 45 m), paved

Time
Time Zone:UTC+0
Local Time:

Weather
METAR:GGOV 240900Z 04004KT CAVOK 21/07 Q1012 NOSIG
TAF:GGOV 232300Z 2400/2424 02007KT CAVOK= TAF LGEL 232300Z 2400/2424 23015KT 9999 FEW012 BKN025
TEMPO 2400/2403 5000 RA SCT014 BKN020
TEMPO 2402/2412 VRB05KT

Related Locations
Nearby:
Farthest:SCZ: 12313 mi / 19816 km
Santa Cruz/Graciosa Bay/Luova, Santa Cruz Island, SB

Find:

   beyond  
but within

Other Information
Maps:
NOTAMs:
Links:
Sources:

  
  • flag of Guinea-Bissau
  

Sectional Chart

Flight Planning
at skyvector.com

Satellite Image

Google Maps Satellite view

 

Copyright © 2004-2019 Karl L. Swartz. All rights reserved.
The Great Circle Mapper name and logo are trademarks of the Great Circle Mapper.
All other trademarks mentioned herein belong to their respective owners.
Please see credits for attibutions and further copyright information.

  Follow gcmap on Facebook Follow gcmap on Twitter Follow gcmap on Google+ GCmap on LinkedIn

hCard Microformat

Geo Microformat